Time;durP1;ratioP1;P1;durP2;ratioP2;P2;SDS_P1;SDS_P2;PMS_P1;PMS_P2;Temp;Humidity;BMP_temperature;BMP_pressure;BME280_temperature;BME280_humidity;BME280_pressure;Samples;Min_cycle;Max_cycle;Signal;HPM_P1;HPM_P2
2022/12/03 00:00:25;;;;;;;;;36.75;21.50;;;;;7.02;60.87;101135.75;5073783;27;49638;-38
2022/12/03 00:02:50;;;;;;;;;47.75;33.75;;;;;7.03;60.89;101134.88;5077828;27;66398;-38
2022/12/03 00:05:16;;;;;;;;;32.00;25.00;;;;;7.02;61.09;101147.00;5092081;27;45586;-38
2022/12/03 00:07:41;;;;;;;;;49.25;32.75;;;;;6.98;60.71;101140.09;5071847;27;68427;-37
2022/12/03 00:10:07;;;;;;;;;45.00;24.50;;;;;7.00;60.90;101138.34;5069866;27;64139;-38
2022/12/03 00:12:32;;;;;;;;;46.50;34.00;;;;;7.00;60.93;101137.50;5078495;27;45587;-38
2022/12/03 00:14:58;;;;;;;;;44.00;33.50;;;;;7.00;60.96;101130.53;5071325;27;45283;-38
2022/12/03 00:17:23;;;;;;;;;41.25;32.25;;;;;7.03;60.95;101137.50;5070215;27;66071;-38
2022/12/03 00:19:48;;;;;;;;;52.50;35.25;;;;;7.02;60.83;101127.94;5073844;27;54438;-38
2022/12/03 00:22:14;;;;;;;;;42.75;30.50;;;;;7.00;60.82;101132.28;5079329;27;54543;-38
2022/12/03 00:24:39;;;;;;;;;37.75;28.00;;;;;7.00;60.76;101125.34;5066019;27;61073;-38
2022/12/03 00:27:04;;;;;;;;;44.00;30.50;;;;;7.01;60.97;101121.00;5073782;27;60120;-38
2022/12/03 00:29:30;;;;;;;;;45.00;34.25;;;;;7.03;60.74;101117.53;5064983;28;67774;-38
2022/12/03 00:31:55;;;;;;;;;47.00;31.25;;;;;7.05;60.69;101114.91;5082675;27;45256;-38
2022/12/03 00:34:21;;;;;;;;;48.25;34.25;;;;;7.04;60.58;101105.38;5065678;27;63732;-38
2022/12/03 00:36:47;;;;;;;;;44.75;35.00;;;;;7.07;60.61;101109.72;5086097;27;45647;-38
2022/12/03 00:39:12;;;;;;;;;44.25;32.50;;;;;7.06;60.56;101108.81;5069992;27;45166;-38
2022/12/03 00:41:38;;;;;;;;;52.25;33.75;;;;;7.03;60.75;101108.88;5071770;28;46092;-38
2022/12/03 00:44:03;;;;;;;;;38.50;30.75;;;;;7.02;60.55;101100.16;5070618;28;71680;-38
2022/12/03 00:46:28;;;;;;;;;31.00;28.75;;;;;7.04;60.37;101107.97;5080130;27;45484;-38
2022/12/03 00:48:54;;;;;;;;;51.00;31.25;;;;;7.03;60.69;101099.31;5074661;27;55637;-38
2022/12/03 00:51:19;;;;;;;;;43.75;30.00;;;;;6.98;60.68;101098.47;5070221;27;70894;-39
2022/12/03 00:53:44;;;;;;;;;38.75;33.00;;;;;7.04;60.61;101116.63;5068390;27;67379;-38
2022/12/03 00:56:10;;;;;;;;;45.75;31.75;;;;;7.05;60.43;101109.72;5075755;27;47258;-38
2022/12/03 00:58:35;;;;;;;;;40.75;31.75;;;;;7.05;60.50;101112.31;5090826;27;48520;-39
2022/12/03 01:01:00;;;;;;;;;49.50;35.00;;;;;7.04;60.33;101105.38;5075012;27;54174;-38
2022/12/03 01:03:26;;;;;;;;;45.50;31.25;;;;;7.04;60.50;101103.63;5064351;28;45917;-39
2022/12/03 01:05:51;;;;;;;;;40.75;31.75;;;;;7.06;60.90;101107.97;5073976;27;45488;-37
2022/12/03 01:08:17;;;;;;;;;41.25;31.25;;;;;7.04;60.49;101102.78;5078381;27;61993;-37
2022/12/03 01:10:42;;;;;;;;;46.00;31.00;;;;;7.04;60.51;101108.81;5068779;27;55696;-38
2022/12/03 01:13:07;;;;;;;;;50.50;37.50;;;;;7.03;60.40;101104.50;5073568;27;45393;-38
2022/12/03 01:15:33;;;;;;;;;41.75;31.25;;;;;7.02;60.30;101110.59;5077953;27;58560;-38
2022/12/03 01:17:58;;;;;;;;;34.00;29.25;;;;;7.02;60.55;101107.97;5075080;27;56513;-38
2022/12/03 01:20:24;;;;;;;;;52.75;34.75;;;;;7.03;60.77;101101.06;5072290;27;47242;-37
2022/12/03 01:22:49;;;;;;;;;52.00;33.25;;;;;7.04;60.56;101100.16;5071341;27;46082;-38
2022/12/03 01:25:14;;;;;;;;;53.50;37.00;;;;;7.06;60.41;101103.63;5065443;28;71888;-38
2022/12/03 01:27:40;;;;;;;;;51.25;35.75;;;;;7.06;60.49;101102.75;5094732;27;45430;-38
2022/12/03 01:30:06;;;;;;;;;46.50;36.50;;;;;7.07;60.51;101102.75;5074747;27;54565;-38
2022/12/03 01:32:31;;;;;;;;;44.00;35.50;;;;;7.09;60.54;101102.75;5076701;27;45488;-38
2022/12/03 01:34:57;;;;;;;;;46.25;34.50;;;;;7.11;60.29;101099.25;5077317;28;45396;-38
2022/12/03 01:37:24;;;;;;;;;48.50;31.25;;;;;7.12;60.30;101106.19;5073238;27;63601;-38
2022/12/03 01:39:50;;;;;;;;;60.75;43.25;;;;;7.13;60.25;101102.69;5071162;27;45520;-38
2022/12/03 01:42:18;;;;;;;;;40.00;34.75;;;;;7.14;60.01;101100.97;5074360;27;46069;-37
2022/12/03 01:44:43;;;;;;;;;44.50;33.25;;;;;7.16;60.22;101104.44;5071605;27;45913;-38
2022/12/03 01:47:15;;;;;;;;;49.25;34.75;;;;;7.17;60.08;101101.81;5075490;27;61943;-37
2022/12/03 01:49:42;;;;;;;;;42.50;34.00;;;;;7.18;60.10;101107.88;5070296;27;45536;-38
2022/12/03 01:52:17;;;;;;;;;37.50;29.25;;;;;7.16;59.91;101113.09;5070384;27;46837;-38
2022/12/03 01:54:49;;;;;;;;;34.75;29.50;;;;;7.16;60.05;101110.50;5086412;27;45589;-38
2022/12/03 01:57:21;;;;;;;;;41.25;27.75;;;;;7.16;59.91;101113.09;5075980;27;45578;-38
2022/12/03 01:59:47;;;;;;;;;49.75;35.00;;;;;7.15;59.79;101110.50;5067752;27;45564;-38
2022/12/03 02:02:27;;;;;;;;;46.75;32.75;;;;;7.11;59.86;101104.44;5067475;27;45626;-38
2022/12/03 02:04:53;;;;;;;;;36.75;27.25;;;;;7.10;59.94;101105.34;5070007;27;46017;-38
2022/12/03 02:07:26;;;;;;;;;47.00;29.00;;;;;7.12;59.77;101105.31;5068757;27;45484;-38
2022/12/03 02:09:53;;;;;;;;;43.00;31.25;;;;;7.11;59.57;101111.41;5067483;28;45501;-38
2022/12/03 02:12:22;;;;;;;;;41.00;32.50;;;;;7.08;59.59;101107.06;5071145;27;45475;-38
2022/12/03 02:14:48;;;;;;;;;47.50;33.75;;;;;7.04;59.68;101103.63;5073270;27;45381;-38
2022/12/03 02:17:13;;;;;;;;;44.50;31.25;;;;;7.02;59.62;101104.53;5073612;27;45481;-38
2022/12/03 02:19:38;;;;;;;;;45.25;34.50;;;;;7.01;59.81;101111.47;5090435;27;54851;-38
2022/12/03 02:22:10;;;;;;;;;42.00;29.75;;;;;7.02;59.74;101115.78;5069787;27;58603;-38
2022/12/03 02:24:41;;;;;;;;;53.50;30.00;;;;;7.02;59.82;101112.31;5077952;27;45423;-37
2022/12/03 02:27:06;;;;;;;;;48.75;33.25;;;;;7.03;59.96;101103.66;5075812;27;45377;-38
2022/12/03 02:29:31;;;;;;;;;42.00;31.25;;;;;7.06;59.73;101106.22;5065698;27;45448;-38
2022/12/03 02:31:57;;;;;;;;;43.50;33.50;;;;;7.06;59.78;101108.81;5072840;27;45695;-37
2022/12/03 02:34:40;;;;;;;;;52.00;35.00;;;;;7.08;59.88;101103.63;5061413;27;64126;-35
2022/12/03 02:37:10;;;;;;;;;50.75;36.50;;;;;7.10;59.66;101100.16;5070456;28;45290;-35
2022/12/03 02:39:37;;;;;;;;;49.50;34.25;;;;;7.12;59.67;101102.72;5076575;28;45528;-35
2022/12/03 02:44:48;;;;;;;;;51.25;34.75;;;;;7.15;59.38;101092.28;5084550;27;45942;-38
2022/12/03 02:47:14;;;;;;;;;51.50;35.75;;;;;7.14;59.48;101095.78;5094938;27;59857;-38
2022/12/03 02:49:39;;;;;;;;;47.00;34.50;;;;;7.14;59.25;101087.97;5064036;27;45514;-38
2022/12/03 02:52:04;;;;;;;;;46.25;34.75;;;;;7.08;59.11;101095.81;5075378;28;60543;-39
2022/12/03 02:54:30;;;;;;;;;47.00;36.00;;;;;7.04;59.20;101094.97;5078814;28;63559;-37
2022/12/03 02:56:55;;;;;;;;;49.25;33.00;;;;;7.02;59.52;101086.31;5064244;27;53497;-38
2022/12/03 02:59:21;;;;;;;;;50.00;36.00;;;;;7.01;59.54;101092.38;5074433;28;62556;-38
2022/12/03 03:01:46;;;;;;;;;38.75;35.50;;;;;6.95;59.57;101082.88;5070136;28;47164;-38
2022/12/03 03:04:11;;;;;;;;;50.00;35.00;;;;;6.92;59.59;101077.69;5068542;27;45574;-38
2022/12/03 03:06:37;;;;;;;;;46.75;36.25;;;;;6.90;59.74;101076.84;5064639;28;45367;-38
2022/12/03 03:09:02;;;;;;;;;37.00;30.50;;;;;6.90;59.74;101083.78;5070158;27;61008;-38
2022/12/03 03:11:28;;;;;;;;;48.50;34.00;;;;;6.87;59.77;101069.06;5073077;28;45402;-38
2022/12/03 03:13:54;;;;;;;;;42.50;31.75;;;;;6.86;59.81;101076.88;5087163;27;45455;-38
2022/12/03 03:16:19;;;;;;;;;38.00;34.25;;;;;6.84;59.77;101089.91;5074617;28;63257;-38
2022/12/03 03:18:45;;;;;;;;;35.50;27.50;;;;;6.83;60.03;101086.44;5074467;27;45310;-38
2022/12/03 03:21:11;;;;;;;;;47.00;35.50;;;;;6.84;60.25;101095.94;5086154;27;46169;-38
2022/12/03 03:23:36;;;;;;;;;48.25;35.00;;;;;6.85;60.15;101091.59;5077690;28;45557;-38
2022/12/03 03:26:05;;;;;;;;;53.50;37.00;;;;;6.86;60.00;101089.88;5076902;27;60283;-38
2022/12/03 03:28:33;;;;;;;;;49.75;35.00;;;;;6.84;59.96;101074.28;5067340;28;45525;-38
2022/12/03 03:31:00;;;;;;;;;44.25;30.75;;;;;6.87;59.96;101086.41;5071191;27;45416;-38
2022/12/03 03:33:26;;;;;;;;;42.00;33.50;;;;;6.90;59.89;101083.78;5078059;28;45481;-37
2022/12/03 03:35:52;;;;;;;;;45.00;35.00;;;;;6.91;59.79;101085.53;5080950;28;45301;-38
2022/12/03 03:38:18;;;;;;;;;57.25;37.25;;;;;6.87;59.81;101094.19;5079046;27;51510;-38
2022/12/03 03:40:43;;;;;;;;;44.75;32.00;;;;;6.83;59.61;101082.94;5071073;27;46234;-38
2022/12/03 03:43:09;;;;;;;;;37.75;29.75;;;;;6.79;59.68;101092.50;5075082;28;72576;-38
2022/12/03 03:45:34;;;;;;;;;47.00;33.50;;;;;6.77;60.00;101088.19;5072749;27;46283;-38
2022/12/03 03:48:00;;;;;;;;;49.25;33.75;;;;;6.78;60.03;101088.19;5089915;27;72942;-38
2022/12/03 03:50:28;;;;;;;;;43.50;31.25;;;;;6.77;59.92;101077.78;5062986;27;69108;-38
2022/12/03 03:52:55;;;;;;;;;42.75;32.25;;;;;6.75;59.74;101070.00;5061297;28;69854;-38
2022/12/03 03:55:20;;;;;;;;;49.25;32.50;;;;;6.77;59.86;101072.59;5080275;27;61451;-38
2022/12/03 03:57:46;;;;;;;;;40.75;33.75;;;;;6.76;59.75;101071.72;5079706;27;45465;-38
2022/12/03 04:00:12;;;;;;;;;41.75;33.25;;;;;6.79;59.74;101082.09;5084670;27;48960;-38
2022/12/03 04:02:39;;;;;;;;;46.75;30.00;;;;;6.79;59.47;101087.31;5077680;27;45298;-38
2022/12/03 04:05:05;;;;;;;;;46.75;31.50;;;;;6.82;59.56;101081.25;5088828;27;45542;-38
2022/12/03 04:07:31;;;;;;;;;38.50;28.75;;;;;6.83;59.45;101083.84;5079434;27;45312;-38
2022/12/03 04:09:56;;;;;;;;;41.50;31.50;;;;;6.84;59.59;101085.53;5074681;27;67321;-38
2022/12/03 04:15:06;;;;;;;;;41.25;31.25;;;;;6.82;59.40;101079.50;5073842;27;45484;-38
2022/12/03 04:17:32;;;;;;;;;35.25;22.50;;;;;6.83;59.34;101077.75;5075007;27;45333;-38
2022/12/03 04:19:57;;;;;;;;;43.25;33.00;;;;;6.80;59.38;101073.44;5074275;27;62596;-38
2022/12/03 04:22:40;;;;;;;;;46.25;35.75;;;;;6.82;59.23;101076.88;5078552;27;50763;-38
2022/12/03 04:30:35;;;;;;;;;42.00;32.75;;;;;6.86;59.14;101076.88;5066956;27;45424;-38
2022/12/03 04:35:44;;;;;;;;;40.00;32.75;;;;;6.89;59.07;101066.44;5066235;28;45317;-38
2022/12/03 04:38:10;;;;;;;;;40.50;32.50;;;;;6.89;58.73;101059.50;5072574;27;45260;-38
2022/12/03 04:43:21;;;;;;;;;47.25;31.75;;;;;6.86;58.82;101056.91;5077632;27;45447;-38
2022/12/03 04:45:46;;;;;;;;;41.50;31.00;;;;;6.82;58.89;101056.09;5072396;27;61662;-38
2022/12/03 04:48:11;;;;;;;;;46.50;31.50;;;;;6.82;58.92;101050.03;5094641;27;72717;-38
2022/12/03 04:50:37;;;;;;;;;36.75;22.75;;;;;6.82;59.01;101052.63;5078586;27;47015;-38
2022/12/03 04:53:02;;;;;;;;;32.25;29.25;;;;;6.82;59.01;101050.88;5070030;27;64211;-38
2022/12/03 04:55:28;;;;;;;;;41.50;28.50;;;;;6.86;58.67;101056.06;5061136;28;59452;-38
2022/12/03 04:57:53;;;;;;;;;45.00;31.00;;;;;6.86;58.70;101058.66;5079162;27;45450;-38
2022/12/03 05:00:19;;;;;;;;;32.00;30.00;;;;;6.84;58.87;101062.13;5078992;27;45504;-38
2022/12/03 05:02:44;;;;;;;;;41.50;32.75;;;;;6.86;58.76;101061.28;5079230;27;45389;-38
2022/12/03 05:05:09;;;;;;;;;49.25;32.75;;;;;6.87;59.01;101063.88;5077454;27;64119;-38
2022/12/03 05:07:35;;;;;;;;;31.25;24.50;;;;;6.87;58.76;101050.84;5068363;27;45827;-38
2022/12/03 05:10:00;;;;;;;;;32.00;28.00;;;;;6.88;58.66;101049.97;5075288;27;47200;-38
2022/12/03 05:12:26;;;;;;;;;39.25;30.25;;;;;6.91;58.70;101052.56;5077569;27;59776;-38
2022/12/03 05:14:51;;;;;;;;;42.25;29.50;;;;;6.95;58.60;101053.41;5073159;27;65672;-38
2022/12/03 05:17:16;;;;;;;;;35.50;29.00;;;;;6.95;58.64;101046.44;5078675;27;57452;-38
2022/12/03 05:22:25;;;;;;;;;43.75;29.25;;;;;6.97;58.47;101047.28;5074906;28;45882;-38
2022/12/03 05:24:51;;;;;;;;;37.25;25.25;;;;;6.95;58.59;101041.25;5077703;27;46850;-38
2022/12/03 05:27:16;;;;;;;;;42.50;28.75;;;;;6.97;58.58;101055.09;5070776;28;73128;-38
2022/12/03 05:29:41;;;;;;;;;35.50;28.25;;;;;7.00;58.39;101054.22;5078456;28;63040;-38
2022/12/03 05:32:07;;;;;;;;;39.25;28.75;;;;;7.02;58.31;101052.47;5050385;27;69519;-38
2022/12/03 05:34:32;;;;;;;;;35.25;29.00;;;;;7.03;58.30;101055.06;5077592;27;54894;-38
2022/12/03 05:36:57;;;;;;;;;33.75;28.75;;;;;7.05;57.84;101062.88;5072751;27;64092;-38
2022/12/03 05:39:23;;;;;;;;;40.00;31.00;;;;;7.08;58.19;101061.97;5075724;27;62078;-38
2022/12/03 05:44:32;;;;;;;;;30.25;20.50;;;;;7.11;58.23;101055.00;5070714;27;45306;-38
2022/12/03 05:46:57;;;;;;;;;46.50;33.25;;;;;7.14;57.87;101061.94;5075693;27;45427;-38
2022/12/03 05:49:23;;;;;;;;;38.00;30.00;;;;;7.14;57.91;101057.59;5076350;27;68598;-38
2022/12/03 05:51:48;;;;;;;;;39.75;30.50;;;;;7.14;57.74;101049.78;5073461;27;61744;-38
2022/12/03 05:54:13;;;;;;;;;29.00;23.50;;;;;7.14;57.78;101046.31;5070444;27;49037;-38
2022/12/03 05:56:39;;;;;;;;;37.25;26.50;;;;;7.14;57.81;101052.38;5073007;27;65462;-38
2022/12/03 05:59:04;;;;;;;;;25.25;22.00;;;;;7.13;57.98;101047.19;5069283;27;62808;-38
2022/12/03 06:01:29;;;;;;;;;33.50;28.50;;;;;7.15;57.48;101053.25;5069967;27;53838;-38
2022/12/03 06:03:55;;;;;;;;;26.00;21.50;;;;;7.14;57.74;101056.75;5073198;28;57663;-38
2022/12/03 06:06:20;;;;;;;;;31.00;24.00;;;;;7.13;57.56;101047.19;5072390;27;58801;-39
2022/12/03 06:08:45;;;;;;;;;37.00;27.25;;;;;7.13;57.82;101042.84;5089741;27;68313;-38
2022/12/03 06:11:11;;;;;;;;;37.75;25.25;;;;;7.13;57.53;101050.66;5073842;27;66427;-38
2022/12/03 06:13:36;;;;;;;;;32.50;26.75;;;;;7.15;57.36;101056.72;5078589;27;45334;-38
2022/12/03 06:16:01;;;;;;;;;35.75;23.75;;;;;7.14;57.76;101044.59;5069265;27;71364;-38
2022/12/03 06:18:27;;;;;;;;;34.25;31.25;;;;;7.16;57.64;101047.19;5074319;27;45561;-39
2022/12/03 06:20:52;;;;;;;;;31.75;23.00;;;;;7.16;57.89;101039.38;5061417;27;45292;-38
2022/12/03 06:23:17;;;;;;;;;36.25;26.75;;;;;7.15;57.48;101037.63;5069708;28;45311;-38
2022/12/03 06:25:43;;;;;;;;;29.50;25.00;;;;;7.13;57.62;101039.38;5073119;27;57412;-38
2022/12/03 06:28:08;;;;;;;;;38.25;28.75;;;;;7.13;57.77;101036.78;5074539;27;70977;-38
2022/12/03 06:30:34;;;;;;;;;35.00;26.75;;;;;7.15;57.69;101043.72;5078120;27;46001;-38
2022/12/03 06:33:00;;;;;;;;;35.00;29.75;;;;;7.15;57.56;101041.13;5072016;28;45386;-38
2022/12/03 06:35:25;;;;;;;;;35.25;29.00;;;;;7.15;57.84;101041.13;5063658;28;45439;-38
2022/12/03 06:37:51;;;;;;;;;35.50;23.25;;;;;7.18;57.64;101048.03;5074108;27;46348;-38
2022/12/03 06:40:17;;;;;;;;;38.25;29.25;;;;;7.21;57.63;101048.84;5067479;27;45357;-38
2022/12/03 06:42:42;;;;;;;;;37.50;30.00;;;;;7.25;57.58;101048.84;5074054;27;45494;-38
2022/12/03 06:45:08;;;;;;;;;34.00;23.50;;;;;7.23;57.14;101041.91;5071649;27;45493;-38
2022/12/03 06:47:33;;;;;;;;;35.75;28.50;;;;;7.21;57.31;101038.44;5065056;27;45319;-38
2022/12/03 06:49:59;;;;;;;;;30.75;22.25;;;;;7.22;57.27;101041.91;5071578;27;45673;-38
2022/12/03 06:52:24;;;;;;;;;35.50;24.50;;;;;7.22;57.39;101045.41;5069370;27;45405;-38
2022/12/03 06:54:50;;;;;;;;;34.75;24.50;;;;;7.23;57.10;101044.50;5065852;27;45222;-38
2022/12/03 06:57:15;;;;;;;;;41.75;25.50;;;;;7.24;57.29;101042.75;5089784;27;47030;-38
2022/12/03 06:59:41;;;;;;;;;35.00;23.50;;;;;7.26;57.08;101047.94;5077455;27;45212;-38
2022/12/03 07:02:06;;;;;;;;;33.00;24.50;;;;;7.24;57.24;101042.75;5075463;27;45387;-38
2022/12/03 07:04:31;;;;;;;;;36.00;26.00;;;;;7.21;56.95;101040.19;5071945;27;63013;-38
2022/12/03 07:06:57;;;;;;;;;28.00;17.75;;;;;7.14;56.87;101043.72;5070456;27;70121;-38
2022/12/03 07:09:22;;;;;;;;;36.25;29.50;;;;;7.17;57.13;101044.56;5079423;27;45492;-38
2022/12/03 07:11:47;;;;;;;;;34.25;29.50;;;;;7.15;57.15;101051.53;5065391;27;45287;-38
2022/12/03 07:14:13;;;;;;;;;28.75;23.50;;;;;7.15;56.98;101045.44;5072182;27;63457;-38
2022/12/03 07:16:38;;;;;;;;;29.25;24.00;;;;;7.14;57.05;101047.19;5061136;28;46307;-38
2022/12/03 07:19:05;;;;;;;;;35.50;26.75;;;;;7.14;56.89;101049.78;5079163;27;45327;-38
2022/12/03 07:21:31;;;;;;;;;29.75;26.50;;;;;7.12;56.84;101051.53;5078936;27;45318;-38
2022/12/03 07:23:56;;;;;;;;;31.50;25.25;;;;;7.14;57.18;101054.13;5093591;27;45652;-39
2022/12/03 07:26:21;;;;;;;;;30.75;26.25;;;;;7.14;57.18;101049.78;5070491;27;60640;-38
2022/12/03 07:28:47;;;;;;;;;28.75;23.00;;;;;7.14;57.03;101043.72;5080009;27;45292;-38
2022/12/03 07:31:13;;;;;;;;;30.25;23.25;;;;;7.17;56.80;101048.88;5075006;27;45275;-38
2022/12/03 07:33:38;;;;;;;;;33.00;25.50;;;;;7.16;57.01;101049.78;5080156;27;45597;-38
2022/12/03 07:36:03;;;;;;;;;41.25;27.75;;;;;7.17;57.13;101052.38;5077311;27;47234;-38
2022/12/03 07:38:29;;;;;;;;;21.50;21.25;;;;;7.19;57.26;101057.56;5073861;28;45210;-38
2022/12/03 07:40:54;;;;;;;;;33.00;28.00;;;;;7.22;57.03;101063.63;5070776;27;45313;-38
2022/12/03 07:43:19;;;;;;;;;34.75;25.00;;;;;7.21;56.71;101067.09;5079475;27;69958;-38
2022/12/03 07:45:45;;;;;;;;;33.50;24.75;;;;;7.22;56.70;101057.53;5093794;27;49251;-38
2022/12/03 07:48:10;;;;;;;;;42.50;24.25;;;;;7.22;56.61;101063.63;5076667;27;45407;-38
2022/12/03 07:50:36;;;;;;;;;31.25;22.75;;;;;7.21;56.50;101064.47;5097474;27;45315;-38
2022/12/03 07:53:01;;;;;;;;;38.75;30.00;;;;;7.19;56.38;101060.19;5081657;27;50425;-38
2022/12/03 07:55:26;;;;;;;;;31.75;24.00;;;;;7.22;56.67;101061.00;5081324;27;64854;-38
2022/12/03 07:57:52;;;;;;;;;29.25;21.50;;;;;7.21;56.40;101056.66;5080912;27;45554;-37
2022/12/03 08:00:18;;;;;;;;;25.25;22.50;;;;;7.22;56.59;101068.81;5075947;27;64745;-38
2022/12/03 08:02:44;;;;;;;;;32.75;22.50;;;;;7.25;56.26;101070.53;5091515;27;45433;-38
2022/12/03 08:05:10;;;;;;;;;31.75;23.00;;;;;7.25;56.24;101074.88;5076947;28;46169;-38
2022/12/03 08:07:35;;;;;;;;;22.75;17.75;;;;;7.23;56.15;101067.06;5096000;27;45224;-37
2022/12/03 08:10:01;;;;;;;;;28.00;19.75;;;;;7.22;56.00;101057.53;5077284;27;47319;-37
2022/12/03 08:12:41;;;;;;;;;22.75;16.00;;;;;7.21;55.54;101064.47;5094847;27;45367;-37
2022/12/03 08:15:12;;;;;;;;;23.75;17.75;;;;;7.21;56.00;101055.81;5074997;28;45332;-37
2022/12/03 08:17:39;;;;;;;;;25.00;18.00;;;;;7.22;55.54;101055.81;5072850;28;45386;-37
2022/12/03 08:20:12;;;;;;;;;25.25;20.00;;;;;7.24;55.51;101063.56;5063714;27;45253;-37
2022/12/03 08:22:37;;;;;;;;;24.75;18.50;;;;;7.24;55.50;101055.75;5081182;27;45304;-43
2022/12/03 08:25:06;;;;;;;;;20.75;17.25;;;;;7.23;56.00;101062.72;5076326;27;45370;-37
2022/12/03 08:27:32;;;;;;;;;28.00;18.75;;;;;7.27;55.82;101055.75;5079522;27;45809;-37
2022/12/03 08:30:00;;;;;;;;;33.25;19.50;;;;;7.28;55.27;101051.41;5076756;27;59309;-37
2022/12/03 08:32:25;;;;;;;;;19.00;16.75;;;;;7.29;55.92;101048.78;5097182;27;45507;-37
2022/12/03 08:34:51;;;;;;;;;25.50;15.75;;;;;7.30;55.75;101049.69;5079056;27;70724;-37
2022/12/03 08:37:17;;;;;;;;;28.00;21.75;;;;;7.32;55.57;101051.38;5080073;27;45448;-38
2022/12/03 08:39:45;;;;;;;;;24.75;17.00;;;;;7.30;55.32;101057.47;5076131;27;45491;-38
2022/12/03 08:44:55;;;;;;;;;22.50;19.25;;;;;7.30;55.50;101052.28;5073576;27;45287;-38
2022/12/03 08:47:22;;;;;;;;;24.00;17.50;;;;;7.31;55.53;101048.78;5073523;28;45166;-38
2022/12/03 08:49:56;;;;;;;;;24.00;19.00;;;;;7.31;55.63;101052.25;5095972;27;45389;-38
2022/12/03 08:52:29;;;;;;;;;22.75;16.00;;;;;7.31;54.96;101046.19;5079480;27;45451;-38
2022/12/03 08:54:55;;;;;;;;;21.50;16.25;;;;;7.27;55.16;101049.69;5081208;27;45648;-38
2022/12/03 08:57:29;;;;;;;;;21.75;16.25;;;;;7.28;55.41;101054.88;5079768;27;45453;-38
2022/12/03 09:00:00;;;;;;;;;30.25;19.00;;;;;7.30;55.37;101060.94;5078442;28;45317;-38
2022/12/03 09:02:31;;;;;;;;;21.00;16.00;;;;;7.30;54.83;101053.13;5079640;28;45469;-38
2022/12/03 09:04:58;;;;;;;;;25.00;20.25;;;;;7.32;55.01;101058.31;5092137;27;45473;-38
2022/12/03 09:07:23;;;;;;;;;20.25;13.25;;;;;7.33;54.88;101058.31;5066313;27;45558;-38
2022/12/03 09:09:49;;;;;;;;;21.00;17.00;;;;;7.33;54.97;101054.84;5076428;27;45473;-38
2022/12/03 09:12:14;;;;;;;;;27.25;19.00;;;;;7.34;55.33;101057.41;5073527;28;45287;-38
2022/12/03 09:14:39;;;;;;;;;22.25;16.00;;;;;7.35;55.15;101056.56;5077836;27;67911;-38
2022/12/03 09:17:05;;;;;;;;;18.75;15.25;;;;;7.37;55.10;101048.75;5068008;27;55312;-38
2022/12/03 09:19:30;;;;;;;;;26.25;17.25;;;;;7.39;55.25;101057.41;5076549;27;45280;-38
2022/12/03 09:21:56;;;;;;;;;19.50;17.25;;;;;7.41;55.34;101053.88;5061201;28;45672;-38
2022/12/03 09:24:22;;;;;;;;;25.00;18.50;;;;;7.45;55.34;101054.72;5075354;27;46148;-39
2022/12/03 09:26:47;;;;;;;;;21.75;18.00;;;;;7.47;54.83;101066.03;5079010;28;45412;-38
2022/12/03 09:29:13;;;;;;;;;27.75;18.50;;;;;7.47;54.72;101054.72;5079039;27;45601;-38
2022/12/03 09:31:38;;;;;;;;;24.00;18.00;;;;;7.47;54.77;101060.81;5068003;27;45609;-38
2022/12/03 09:34:04;;;;;;;;;24.00;17.25;;;;;7.46;54.64;101059.06;5062955;28;45516;-38
2022/12/03 09:36:30;;;;;;;;;23.00;16.00;;;;;7.49;54.77;101061.66;5075237;27;45345;-38
2022/12/03 09:38:55;;;;;;;;;22.00;16.75;;;;;7.51;54.89;101061.66;5069025;27;45465;-38
2022/12/03 09:41:21;;;;;;;;;19.50;12.25;;;;;7.53;54.70;101058.13;5076433;27;59353;-38
2022/12/03 09:43:47;;;;;;;;;20.75;17.00;;;;;7.56;54.91;101060.72;5079855;27;45575;-38
2022/12/03 09:46:12;;;;;;;;;22.25;17.25;;;;;7.58;54.53;101052.91;5065719;27;53769;-38
2022/12/03 09:48:38;;;;;;;;;26.25;18.00;;;;;7.55;54.63;101056.38;5075871;28;45540;-38
2022/12/03 09:51:04;;;;;;;;;23.00;16.00;;;;;7.57;54.58;101061.56;5078753;27;45765;-38
2022/12/03 09:53:29;;;;;;;;;24.25;16.25;;;;;7.56;54.22;101058.13;5070127;28;45890;-38
2022/12/03 09:55:58;;;;;;;;;11.75;6.75;;;;;7.55;54.33;101061.59;5077532;27;45511;-38
2022/12/03 09:58:25;;;;;;;;;25.00;20.25;;;;;7.55;54.35;101051.16;5072547;28;45285;-39
2022/12/03 10:00:51;;;;;;;;;32.75;24.25;;;;;7.55;54.55;101048.56;5061886;28;45232;-40
2022/12/03 10:03:19;;;;;;;;;32.50;23.50;;;;;7.62;54.51;101051.13;5068039;27;46297;-40
2022/12/03 10:05:45;;;;;;;;;28.75;23.25;;;;;7.63;54.25;101040.66;5077060;27;45575;-41
2022/12/03 10:08:12;;;;;;;;;27.50;19.50;;;;;7.65;54.40;101046.75;5073306;27;45499;-40
2022/12/03 10:10:39;;;;;;;;;26.00;21.25;;;;;7.65;54.21;101041.53;5072106;27;45691;-40
2022/12/03 10:13:06;;;;;;;;;33.50;26.00;;;;;7.64;54.42;101033.72;5074454;28;45425;-40
2022/12/03 10:15:32;;;;;;;;;29.50;23.00;;;;;7.65;54.31;101035.44;5069190;27;45464;-39
2022/12/03 10:18:14;;;;;;;;;23.75;21.50;;;;;7.64;54.56;101026.78;5076606;27;45509;-40
2022/12/03 10:20:39;;;;;;;;;24.75;18.50;;;;;7.65;54.41;101027.63;5090520;27;45485;-41
2022/12/03 10:23:04;;;;;;;;;25.75;18.25;;;;;7.66;54.64;101031.97;5073318;27;75294;-40
2022/12/03 10:25:31;;;;;;;;;23.00;19.50;;;;;7.68;54.50;101027.59;5077099;28;63046;-41
2022/12/03 10:28:01;;;;;;;;;23.25;17.25;;;;;7.72;54.56;101016.25;5071929;28;45476;-40
2022/12/03 10:30:27;;;;;;;;;15.50;12.00;;;;;7.75;54.51;101000.59;5093321;27;45345;-42
2022/12/03 10:32:55;;;;;;;;;33.00;20.50;;;;;7.77;54.33;101011.88;5067005;27;45414;-41
2022/12/03 10:35:23;;;;;;;;;18.25;17.25;;;;;7.78;54.20;101005.78;5070778;27;45969;-40
2022/12/03 10:37:59;;;;;;;;;26.50;19.00;;;;;7.78;54.21;101011.00;5090344;27;45331;-38
2022/12/03 10:40:36;;;;;;;;;55.50;38.75;;;;;7.79;54.35;101011.00;5087078;27;45937;-39
2022/12/03 10:43:13;;;;;;;;;21.00;16.75;;;;;7.80;54.33;101012.69;5078097;27;45279;-38
2022/12/03 10:45:40;;;;;;;;;20.50;16.00;;;;;7.77;54.06;101004.94;5072729;27;46089;-39
2022/12/03 10:48:16;;;;;;;;;28.50;18.25;;;;;7.79;53.94;101012.72;5088785;27;45610;-40
2022/12/03 10:50:50;;;;;;;;;20.50;16.75;;;;;7.80;54.26;101015.31;5083856;27;45371;-39
2022/12/03 10:53:16;;;;;;;;;8.50;3.00;;;;;7.83;54.22;101018.78;5073204;28;45432;-39
2022/12/03 10:55:43;;;;;;;;;24.50;18.00;;;;;7.82;53.92;101014.44;5069446;27;46027;-40
2022/12/03 10:58:18;;;;;;;;;23.25;17.00;;;;;7.80;53.72;101009.25;5092528;27;45478;-39
2022/12/03 11:00:43;;;;;;;;;26.50;18.75;;;;;7.77;53.84;101007.53;5067627;27;45346;-40
2022/12/03 11:03:17;;;;;;;;;19.25;15.00;;;;;7.77;53.54;101006.66;5069577;27;45774;-40
2022/12/03 11:05:43;;;;;;;;;23.75;13.25;;;;;7.74;53.59;101007.56;5078947;27;45879;-41
2022/12/03 11:08:18;;;;;;;;;20.25;17.75;;;;;7.72;53.34;101001.53;5074490;27;45491;-39
2022/12/03 11:10:44;;;;;;;;;20.00;16.75;;;;;7.70;53.79;100994.59;5079946;27;45418;-39
2022/12/03 11:13:25;;;;;;;;;18.25;15.50;;;;;7.65;53.57;100983.34;5080276;27;45862;-39
2022/12/03 11:15:52;;;;;;;;;24.25;19.50;;;;;7.60;53.83;100992.09;5076111;27;45850;-40
2022/12/03 11:18:35;;;;;;;;;13.25;4.50;;;;;7.59;54.15;100989.50;5073505;27;45559;-40
2022/12/03 11:21:05;;;;;;;;;24.50;17.00;;;;;7.59;54.06;100984.28;5074656;28;45839;-40
2022/12/03 11:23:45;;;;;;;;;20.75;17.25;;;;;7.63;53.90;100975.53;5071194;27;46566;-40
2022/12/03 11:26:15;;;;;;;;;21.00;16.50;;;;;7.64;54.05;100984.25;5067161;28;45854;-40
2022/12/03 11:28:52;;;;;;;;;20.75;19.00;;;;;7.66;53.79;100987.69;5067352;28;45319;-40
2022/12/03 11:31:41;;;;;;;;;20.75;15.00;;;;;7.67;54.15;100977.25;5074070;27;45513;-40
2022/12/03 11:34:18;;;;;;;;;22.50;17.50;;;;;7.71;54.01;100978.09;5071750;28;46023;-40
2022/12/03 11:37:16;;;;;;;;;21.25;18.25;;;;;7.73;53.96;100973.72;5077579;27;45319;-40
2022/12/03 11:39:50;;;;;;;;;23.00;17.25;;;;;7.76;54.09;100974.53;5060956;27;45427;-39